sensor_id;sensor_type;location;lat;lon;timestamp;P1;durP1;ratioP1;P2;durP2;ratioP2
13941;SDS011;7043;51.630;7.254;2022-07-29T00:00:07;3.70;;;1.50;;
13941;SDS011;7043;51.630;7.254;2022-07-29T00:02:34;6.47;;;1.50;;
13941;SDS011;7043;51.630;7.254;2022-07-29T00:05:00;7.67;;;1.50;;
13941;SDS011;7043;51.630;7.254;2022-07-29T00:07:26;2.70;;;1.20;;
13941;SDS011;7043;51.630;7.254;2022-07-29T00:09:52;2.93;;;1.40;;
13941;SDS011;7043;51.630;7.254;2022-07-29T00:12:19;3.73;;;1.47;;
13941;SDS011;7043;51.630;7.254;2022-07-29T00:14:45;3.57;;;1.27;;
13941;SDS011;7043;51.630;7.254;2022-07-29T00:17:11;3.00;;;1.40;;
13941;SDS011;7043;51.630;7.254;2022-07-29T00:19:37;3.90;;;1.23;;
13941;SDS011;7043;51.630;7.254;2022-07-29T00:22:03;5.47;;;1.40;;
13941;SDS011;7043;51.630;7.254;2022-07-29T00:24:29;4.93;;;1.50;;
13941;SDS011;7043;51.630;7.254;2022-07-29T00:26:55;4.60;;;1.50;;
13941;SDS011;7043;51.630;7.254;2022-07-29T00:29:21;4.17;;;1.30;;
13941;SDS011;7043;51.630;7.254;2022-07-29T00:31:47;4.37;;;1.40;;
13941;SDS011;7043;51.630;7.254;2022-07-29T00:34:13;2.47;;;1.30;;
13941;SDS011;7043;51.630;7.254;2022-07-29T00:36:58;1.93;;;1.17;;
13941;SDS011;7043;51.630;7.254;2022-07-29T00:39:24;3.37;;;1.40;;
13941;SDS011;7043;51.630;7.254;2022-07-29T00:41:50;3.60;;;1.30;;
13941;SDS011;7043;51.630;7.254;2022-07-29T00:44:16;5.60;;;1.40;;
13941;SDS011;7043;51.630;7.254;2022-07-29T00:46:42;4.60;;;1.30;;
13941;SDS011;7043;51.630;7.254;2022-07-29T00:49:08;3.73;;;1.60;;
13941;SDS011;7043;51.630;7.254;2022-07-29T00:51:35;3.97;;;1.30;;
13941;SDS011;7043;51.630;7.254;2022-07-29T00:54:02;3.07;;;1.50;;
13941;SDS011;7043;51.630;7.254;2022-07-29T00:56:32;3.67;;;1.53;;
13941;SDS011;7043;51.630;7.254;2022-07-29T00:58:58;4.57;;;1.30;;
13941;SDS011;7043;51.630;7.254;2022-07-29T01:01:24;3.50;;;1.30;;
13941;SDS011;7043;51.630;7.254;2022-07-29T01:03:50;2.83;;;1.20;;
13941;SDS011;7043;51.630;7.254;2022-07-29T01:06:17;5.37;;;1.50;;
13941;SDS011;7043;51.630;7.254;2022-07-29T01:08:43;5.20;;;1.47;;
13941;SDS011;7043;51.630;7.254;2022-07-29T01:11:10;2.63;;;1.27;;
13941;SDS011;7043;51.630;7.254;2022-07-29T01:13:36;3.73;;;1.57;;
13941;SDS011;7043;51.630;7.254;2022-07-29T01:16:04;4.50;;;1.63;;
13941;SDS011;7043;51.630;7.254;2022-07-29T01:18:39;3.67;;;1.40;;
13941;SDS011;7043;51.630;7.254;2022-07-29T01:31:11;2.50;;;1.33;;
13941;SDS011;7043;51.630;7.254;2022-07-29T01:33:41;3.50;;;1.30;;
13941;SDS011;7043;51.630;7.254;2022-07-29T01:36:18;4.67;;;1.40;;
13941;SDS011;7043;51.630;7.254;2022-07-29T01:38:46;9.10;;;1.60;;
13941;SDS011;7043;51.630;7.254;2022-07-29T01:41:15;4.43;;;1.67;;
13941;SDS011;7043;51.630;7.254;2022-07-29T01:43:44;5.00;;;1.53;;
13941;SDS011;7043;51.630;7.254;2022-07-29T01:46:13;4.77;;;1.40;;
13941;SDS011;7043;51.630;7.254;2022-07-29T01:48:42;2.87;;;1.47;;
13941;SDS011;7043;51.630;7.254;2022-07-29T01:51:16;3.77;;;1.40;;
13941;SDS011;7043;51.630;7.254;2022-07-29T01:53:46;4.77;;;1.30;;
13941;SDS011;7043;51.630;7.254;2022-07-29T01:56:13;4.40;;;1.40;;
13941;SDS011;7043;51.630;7.254;2022-07-29T01:58:40;4.23;;;1.20;;
13941;SDS011;7043;51.630;7.254;2022-07-29T02:01:08;3.90;;;1.37;;
13941;SDS011;7043;51.630;7.254;2022-07-29T02:03:34;4.90;;;1.63;;
13941;SDS011;7043;51.630;7.254;2022-07-29T02:06:02;4.37;;;1.30;;
13941;SDS011;7043;51.630;7.254;2022-07-29T02:08:29;2.47;;;1.50;;
13941;SDS011;7043;51.630;7.254;2022-07-29T02:10:55;3.67;;;1.67;;
13941;SDS011;7043;51.630;7.254;2022-07-29T02:13:21;3.43;;;1.47;;
13941;SDS011;7043;51.630;7.254;2022-07-29T02:15:49;4.23;;;1.63;;
13941;SDS011;7043;51.630;7.254;2022-07-29T02:18:16;3.37;;;1.50;;
13941;SDS011;7043;51.630;7.254;2022-07-29T02:20:47;5.17;;;1.37;;
13941;SDS011;7043;51.630;7.254;2022-07-29T02:23:14;3.60;;;1.50;;
13941;SDS011;7043;51.630;7.254;2022-07-29T02:25:42;2.90;;;1.70;;
13941;SDS011;7043;51.630;7.254;2022-07-29T02:28:08;4.83;;;1.40;;
13941;SDS011;7043;51.630;7.254;2022-07-29T02:30:38;3.97;;;1.40;;
13941;SDS011;7043;51.630;7.254;2022-07-29T02:33:05;3.87;;;1.50;;
13941;SDS011;7043;51.630;7.254;2022-07-29T02:35:32;3.47;;;1.83;;
13941;SDS011;7043;51.630;7.254;2022-07-29T02:37:58;4.90;;;1.60;;
13941;SDS011;7043;51.630;7.254;2022-07-29T02:40:43;2.47;;;1.50;;
13941;SDS011;7043;51.630;7.254;2022-07-29T02:43:09;2.87;;;1.43;;
13941;SDS011;7043;51.630;7.254;2022-07-29T02:45:35;4.77;;;1.73;;
13941;SDS011;7043;51.630;7.254;2022-07-29T02:48:05;5.30;;;1.80;;
13941;SDS011;7043;51.630;7.254;2022-07-29T02:50:37;2.70;;;1.57;;
13941;SDS011;7043;51.630;7.254;2022-07-29T02:53:12;2.67;;;1.33;;
13941;SDS011;7043;51.630;7.254;2022-07-29T02:55:43;3.20;;;1.77;;
13941;SDS011;7043;51.630;7.254;2022-07-29T03:00:44;4.37;;;1.50;;
13941;SDS011;7043;51.630;7.254;2022-07-29T03:03:13;4.27;;;1.60;;
13941;SDS011;7043;51.630;7.254;2022-07-29T03:05:40;3.77;;;1.60;;
13941;SDS011;7043;51.630;7.254;2022-07-29T03:08:07;4.23;;;1.60;;
13941;SDS011;7043;51.630;7.254;2022-07-29T03:10:34;3.13;;;1.60;;
13941;SDS011;7043;51.630;7.254;2022-07-29T03:13:00;5.10;;;1.50;;
13941;SDS011;7043;51.630;7.254;2022-07-29T03:15:26;3.73;;;1.67;;
13941;SDS011;7043;51.630;7.254;2022-07-29T03:17:53;3.30;;;1.57;;
13941;SDS011;7043;51.630;7.254;2022-07-29T03:20:20;3.53;;;1.53;;
13941;SDS011;7043;51.630;7.254;2022-07-29T03:22:46;6.00;;;1.80;;
13941;SDS011;7043;51.630;7.254;2022-07-29T03:25:13;5.07;;;1.70;;
13941;SDS011;7043;51.630;7.254;2022-07-29T03:27:39;4.17;;;1.60;;
13941;SDS011;7043;51.630;7.254;2022-07-29T03:30:06;3.97;;;1.60;;
13941;SDS011;7043;51.630;7.254;2022-07-29T03:32:33;4.50;;;1.60;;
13941;SDS011;7043;51.630;7.254;2022-07-29T03:34:59;2.67;;;1.37;;
13941;SDS011;7043;51.630;7.254;2022-07-29T03:37:25;3.63;;;1.63;;
13941;SDS011;7043;51.630;7.254;2022-07-29T03:39:51;4.57;;;1.53;;
13941;SDS011;7043;51.630;7.254;2022-07-29T03:42:18;4.03;;;1.80;;
13941;SDS011;7043;51.630;7.254;2022-07-29T03:44:45;4.63;;;1.87;;
13941;SDS011;7043;51.630;7.254;2022-07-29T03:47:13;8.23;;;1.70;;
13941;SDS011;7043;51.630;7.254;2022-07-29T03:49:40;3.70;;;1.80;;
13941;SDS011;7043;51.630;7.254;2022-07-29T03:52:06;6.33;;;1.70;;
13941;SDS011;7043;51.630;7.254;2022-07-29T03:54:33;3.73;;;1.90;;
13941;SDS011;7043;51.630;7.254;2022-07-29T03:56:59;2.30;;;1.53;;
13941;SDS011;7043;51.630;7.254;2022-07-29T03:59:27;2.63;;;1.40;;
13941;SDS011;7043;51.630;7.254;2022-07-29T04:01:53;5.10;;;1.77;;
13941;SDS011;7043;51.630;7.254;2022-07-29T04:04:21;3.43;;;1.57;;
13941;SDS011;7043;51.630;7.254;2022-07-29T04:06:47;3.43;;;1.70;;
13941;SDS011;7043;51.630;7.254;2022-07-29T04:09:13;3.10;;;1.50;;
13941;SDS011;7043;51.630;7.254;2022-07-29T04:11:39;5.53;;;1.63;;
13941;SDS011;7043;51.630;7.254;2022-07-29T04:14:05;3.37;;;1.60;;
13941;SDS011;7043;51.630;7.254;2022-07-29T04:16:31;3.40;;;1.80;;
13941;SDS011;7043;51.630;7.254;2022-07-29T04:18:57;5.60;;;1.70;;
13941;SDS011;7043;51.630;7.254;2022-07-29T04:21:23;2.43;;;1.70;;
13941;SDS011;7043;51.630;7.254;2022-07-29T04:23:49;2.67;;;1.60;;
13941;SDS011;7043;51.630;7.254;2022-07-29T04:26:16;4.57;;;1.70;;
13941;SDS011;7043;51.630;7.254;2022-07-29T04:28:42;3.90;;;1.63;;
13941;SDS011;7043;51.630;7.254;2022-07-29T04:31:09;5.00;;;1.93;;
13941;SDS011;7043;51.630;7.254;2022-07-29T04:33:35;4.87;;;1.77;;
13941;SDS011;7043;51.630;7.254;2022-07-29T04:36:01;4.30;;;1.70;;
13941;SDS011;7043;51.630;7.254;2022-07-29T04:38:27;5.17;;;2.20;;
13941;SDS011;7043;51.630;7.254;2022-07-29T04:40:52;5.23;;;1.50;;
13941;SDS011;7043;51.630;7.254;2022-07-29T04:43:18;5.70;;;1.97;;
13941;SDS011;7043;51.630;7.254;2022-07-29T04:45:44;3.83;;;1.70;;
13941;SDS011;7043;51.630;7.254;2022-07-29T04:48:10;4.43;;;2.00;;
13941;SDS011;7043;51.630;7.254;2022-07-29T04:50:40;3.73;;;1.63;;
13941;SDS011;7043;51.630;7.254;2022-07-29T04:53:06;3.37;;;1.90;;
13941;SDS011;7043;51.630;7.254;2022-07-29T04:55:32;3.73;;;1.50;;
13941;SDS011;7043;51.630;7.254;2022-07-29T04:57:58;9.40;;;2.63;;
13941;SDS011;7043;51.630;7.254;2022-07-29T05:00:25;4.37;;;2.10;;
13941;SDS011;7043;51.630;7.254;2022-07-29T05:02:51;5.23;;;2.47;;
13941;SDS011;7043;51.630;7.254;2022-07-29T05:05:17;4.23;;;2.47;;
13941;SDS011;7043;51.630;7.254;2022-07-29T05:07:43;4.10;;;2.50;;
13941;SDS011;7043;51.630;7.254;2022-07-29T05:10:09;4.57;;;2.90;;
13941;SDS011;7043;51.630;7.254;2022-07-29T05:12:36;4.60;;;3.07;;
13941;SDS011;7043;51.630;7.254;2022-07-29T05:15:02;5.03;;;3.10;;
13941;SDS011;7043;51.630;7.254;2022-07-29T05:17:28;5.27;;;3.53;;
13941;SDS011;7043;51.630;7.254;2022-07-29T05:19:54;8.47;;;3.70;;
13941;SDS011;7043;51.630;7.254;2022-07-29T05:22:20;5.10;;;3.43;;
13941;SDS011;7043;51.630;7.254;2022-07-29T05:24:46;5.20;;;3.47;;
13941;SDS011;7043;51.630;7.254;2022-07-29T05:27:12;6.87;;;3.80;;
13941;SDS011;7043;51.630;7.254;2022-07-29T05:29:38;7.17;;;3.50;;
13941;SDS011;7043;51.630;7.254;2022-07-29T05:32:04;6.13;;;4.17;;
13941;SDS011;7043;51.630;7.254;2022-07-29T05:34:31;6.70;;;3.57;;
13941;SDS011;7043;51.630;7.254;2022-07-29T05:36:57;5.03;;;3.23;;
13941;SDS011;7043;51.630;7.254;2022-07-29T05:39:23;6.27;;;3.50;;
13941;SDS011;7043;51.630;7.254;2022-07-29T05:41:49;6.13;;;3.97;;
13941;SDS011;7043;51.630;7.254;2022-07-29T05:44:15;6.27;;;3.60;;
13941;SDS011;7043;51.630;7.254;2022-07-29T05:46:41;5.97;;;3.50;;
13941;SDS011;7043;51.630;7.254;2022-07-29T05:49:07;5.30;;;3.50;;
13941;SDS011;7043;51.630;7.254;2022-07-29T05:51:34;5.53;;;3.40;;
13941;SDS011;7043;51.630;7.254;2022-07-29T05:54:00;5.40;;;3.87;;
13941;SDS011;7043;51.630;7.254;2022-07-29T05:56:26;5.37;;;3.50;;
13941;SDS011;7043;51.630;7.254;2022-07-29T05:58:52;7.83;;;3.93;;
13941;SDS011;7043;51.630;7.254;2022-07-29T06:01:18;5.80;;;3.60;;
13941;SDS011;7043;51.630;7.254;2022-07-29T06:03:44;7.00;;;3.63;;
13941;SDS011;7043;51.630;7.254;2022-07-29T06:06:10;4.53;;;3.20;;
13941;SDS011;7043;51.630;7.254;2022-07-29T06:08:36;5.40;;;3.20;;
13941;SDS011;7043;51.630;7.254;2022-07-29T06:11:03;5.80;;;3.40;;
13941;SDS011;7043;51.630;7.254;2022-07-29T06:13:29;6.10;;;3.30;;
13941;SDS011;7043;51.630;7.254;2022-07-29T06:15:55;4.70;;;3.10;;
13941;SDS011;7043;51.630;7.254;2022-07-29T06:18:21;5.00;;;3.10;;
13941;SDS011;7043;51.630;7.254;2022-07-29T06:20:52;4.30;;;2.90;;
13941;SDS011;7043;51.630;7.254;2022-07-29T06:23:19;3.87;;;3.20;;
13941;SDS011;7043;51.630;7.254;2022-07-29T06:25:45;5.40;;;2.93;;
13941;SDS011;7043;51.630;7.254;2022-07-29T06:28:11;3.17;;;2.87;;
13941;SDS011;7043;51.630;7.254;2022-07-29T06:30:37;4.60;;;3.20;;
13941;SDS011;7043;51.630;7.254;2022-07-29T06:33:04;5.27;;;2.90;;
13941;SDS011;7043;51.630;7.254;2022-07-29T06:35:30;5.23;;;3.50;;
13941;SDS011;7043;51.630;7.254;2022-07-29T06:37:56;4.33;;;3.37;;
13941;SDS011;7043;51.630;7.254;2022-07-29T06:40:22;6.30;;;2.87;;
13941;SDS011;7043;51.630;7.254;2022-07-29T06:43:06;5.00;;;3.30;;
13941;SDS011;7043;51.630;7.254;2022-07-29T06:45:35;5.67;;;3.37;;
13941;SDS011;7043;51.630;7.254;2022-07-29T06:48:03;4.90;;;3.10;;
13941;SDS011;7043;51.630;7.254;2022-07-29T06:50:29;6.83;;;3.90;;
13941;SDS011;7043;51.630;7.254;2022-07-29T06:52:55;6.03;;;3.53;;
13941;SDS011;7043;51.630;7.254;2022-07-29T06:55:21;5.67;;;3.63;;
13941;SDS011;7043;51.630;7.254;2022-07-29T06:57:47;6.37;;;3.70;;
13941;SDS011;7043;51.630;7.254;2022-07-29T07:00:13;4.93;;;3.23;;
13941;SDS011;7043;51.630;7.254;2022-07-29T07:02:40;6.80;;;4.00;;
13941;SDS011;7043;51.630;7.254;2022-07-29T07:05:06;6.30;;;4.23;;
13941;SDS011;7043;51.630;7.254;2022-07-29T07:07:32;5.77;;;3.60;;
13941;SDS011;7043;51.630;7.254;2022-07-29T07:09:58;7.73;;;3.93;;
13941;SDS011;7043;51.630;7.254;2022-07-29T07:12:24;7.80;;;3.70;;
13941;SDS011;7043;51.630;7.254;2022-07-29T07:14:50;6.60;;;3.83;;
13941;SDS011;7043;51.630;7.254;2022-07-29T07:17:16;7.90;;;3.83;;
13941;SDS011;7043;51.630;7.254;2022-07-29T07:19:42;5.07;;;3.70;;
13941;SDS011;7043;51.630;7.254;2022-07-29T07:22:08;8.03;;;3.47;;
13941;SDS011;7043;51.630;7.254;2022-07-29T07:24:34;4.50;;;3.40;;
13941;SDS011;7043;51.630;7.254;2022-07-29T07:27:00;8.47;;;3.60;;
13941;SDS011;7043;51.630;7.254;2022-07-29T07:29:26;4.63;;;3.33;;
13941;SDS011;7043;51.630;7.254;2022-07-29T07:31:52;8.37;;;3.60;;
13941;SDS011;7043;51.630;7.254;2022-07-29T07:34:19;7.43;;;4.03;;
13941;SDS011;7043;51.630;7.254;2022-07-29T07:36:45;4.83;;;3.70;;
13941;SDS011;7043;51.630;7.254;2022-07-29T07:39:11;6.00;;;3.70;;
13941;SDS011;7043;51.630;7.254;2022-07-29T07:41:37;7.80;;;3.67;;
13941;SDS011;7043;51.630;7.254;2022-07-29T07:44:03;5.90;;;3.90;;
13941;SDS011;7043;51.630;7.254;2022-07-29T07:46:29;6.87;;;3.93;;
13941;SDS011;7043;51.630;7.254;2022-07-29T07:48:55;7.47;;;4.30;;
13941;SDS011;7043;51.630;7.254;2022-07-29T07:51:21;6.43;;;4.13;;
13941;SDS011;7043;51.630;7.254;2022-07-29T07:53:47;7.80;;;3.80;;
13941;SDS011;7043;51.630;7.254;2022-07-29T07:56:15;8.07;;;4.10;;
13941;SDS011;7043;51.630;7.254;2022-07-29T07:58:41;6.07;;;4.27;;
13941;SDS011;7043;51.630;7.254;2022-07-29T08:01:07;7.87;;;3.97;;
13941;SDS011;7043;51.630;7.254;2022-07-29T08:03:34;7.97;;;4.10;;
13941;SDS011;7043;51.630;7.254;2022-07-29T08:06:00;4.30;;;3.63;;
13941;SDS011;7043;51.630;7.254;2022-07-29T08:08:26;7.13;;;4.07;;
13941;SDS011;7043;51.630;7.254;2022-07-29T08:10:52;8.17;;;4.37;;
13941;SDS011;7043;51.630;7.254;2022-07-29T08:13:22;4.83;;;4.00;;
13941;SDS011;7043;51.630;7.254;2022-07-29T08:15:50;5.07;;;4.00;;
13941;SDS011;7043;51.630;7.254;2022-07-29T08:18:27;4.57;;;3.50;;
13941;SDS011;7043;51.630;7.254;2022-07-29T08:20:53;5.53;;;3.80;;
13941;SDS011;7043;51.630;7.254;2022-07-29T08:23:19;9.47;;;3.57;;
13941;SDS011;7043;51.630;7.254;2022-07-29T08:25:45;6.63;;;3.70;;
13941;SDS011;7043;51.630;7.254;2022-07-29T08:28:12;4.50;;;3.90;;
13941;SDS011;7043;51.630;7.254;2022-07-29T08:30:38;5.43;;;3.47;;
13941;SDS011;7043;51.630;7.254;2022-07-29T08:33:04;5.90;;;4.03;;
13941;SDS011;7043;51.630;7.254;2022-07-29T08:35:30;4.13;;;3.30;;
13941;SDS011;7043;51.630;7.254;2022-07-29T08:37:56;5.20;;;3.43;;
13941;SDS011;7043;51.630;7.254;2022-07-29T08:40:23;6.97;;;3.50;;
13941;SDS011;7043;51.630;7.254;2022-07-29T08:42:49;5.37;;;3.67;;
13941;SDS011;7043;51.630;7.254;2022-07-29T08:45:15;5.20;;;3.33;;
13941;SDS011;7043;51.630;7.254;2022-07-29T08:47:43;5.70;;;3.83;;
13941;SDS011;7043;51.630;7.254;2022-07-29T08:50:10;6.60;;;3.77;;
13941;SDS011;7043;51.630;7.254;2022-07-29T08:52:37;5.13;;;4.13;;
13941;SDS011;7043;51.630;7.254;2022-07-29T08:55:04;6.27;;;3.60;;
13941;SDS011;7043;51.630;7.254;2022-07-29T08:57:30;6.13;;;4.27;;
13941;SDS011;7043;51.630;7.254;2022-07-29T08:59:56;5.40;;;3.90;;
13941;SDS011;7043;51.630;7.254;2022-07-29T09:02:23;5.37;;;3.90;;
13941;SDS011;7043;51.630;7.254;2022-07-29T09:04:50;7.77;;;3.83;;
13941;SDS011;7043;51.630;7.254;2022-07-29T09:07:17;6.80;;;3.90;;
13941;SDS011;7043;51.630;7.254;2022-07-29T09:09:43;8.10;;;3.93;;
13941;SDS011;7043;51.630;7.254;2022-07-29T09:12:10;5.73;;;4.00;;
13941;SDS011;7043;51.630;7.254;2022-07-29T09:14:39;5.13;;;4.17;;
13941;SDS011;7043;51.630;7.254;2022-07-29T09:17:05;6.60;;;4.30;;
13941;SDS011;7043;51.630;7.254;2022-07-29T09:19:32;6.97;;;4.10;;
13941;SDS011;7043;51.630;7.254;2022-07-29T09:22:03;5.77;;;4.17;;
13941;SDS011;7043;51.630;7.254;2022-07-29T09:27:03;4.70;;;3.97;;
13941;SDS011;7043;51.630;7.254;2022-07-29T09:29:33;6.60;;;3.50;;
13941;SDS011;7043;51.630;7.254;2022-07-29T09:31:59;4.37;;;3.80;;
13941;SDS011;7043;51.630;7.254;2022-07-29T09:34:34;4.80;;;3.40;;
13941;SDS011;7043;51.630;7.254;2022-07-29T09:37:00;4.13;;;3.70;;
13941;SDS011;7043;51.630;7.254;2022-07-29T09:39:29;6.70;;;3.77;;
13941;SDS011;7043;51.630;7.254;2022-07-29T09:41:56;6.33;;;3.50;;
13941;SDS011;7043;51.630;7.254;2022-07-29T09:44:22;4.03;;;3.20;;
13941;SDS011;7043;51.630;7.254;2022-07-29T09:47:07;6.03;;;3.20;;
13941;SDS011;7043;51.630;7.254;2022-07-29T09:49:49;5.60;;;3.23;;
13941;SDS011;7043;51.630;7.254;2022-07-29T09:52:15;5.70;;;3.03;;
13941;SDS011;7043;51.630;7.254;2022-07-29T09:54:41;6.90;;;2.97;;
13941;SDS011;7043;51.630;7.254;2022-07-29T09:57:08;5.80;;;3.07;;
13941;SDS011;7043;51.630;7.254;2022-07-29T09:59:37;5.40;;;3.00;;
13941;SDS011;7043;51.630;7.254;2022-07-29T10:02:15;4.13;;;2.97;;
13941;SDS011;7043;51.630;7.254;2022-07-29T10:04:42;6.43;;;3.40;;
13941;SDS011;7043;51.630;7.254;2022-07-29T10:07:08;6.20;;;3.30;;
13941;SDS011;7043;51.630;7.254;2022-07-29T10:09:35;8.87;;;3.10;;
13941;SDS011;7043;51.630;7.254;2022-07-29T10:14:30;5.80;;;3.83;;
13941;SDS011;7043;51.630;7.254;2022-07-29T10:16:57;6.00;;;3.80;;
13941;SDS011;7043;51.630;7.254;2022-07-29T10:19:27;5.10;;;3.60;;
13941;SDS011;7043;51.630;7.254;2022-07-29T10:21:54;6.43;;;3.47;;
13941;SDS011;7043;51.630;7.254;2022-07-29T10:24:21;6.13;;;3.27;;
13941;SDS011;7043;51.630;7.254;2022-07-29T10:26:48;7.37;;;3.37;;
13941;SDS011;7043;51.630;7.254;2022-07-29T10:29:14;8.93;;;3.70;;
13941;SDS011;7043;51.630;7.254;2022-07-29T10:31:59;5.50;;;3.63;;
13941;SDS011;7043;51.630;7.254;2022-07-29T10:36:56;5.73;;;3.37;;
13941;SDS011;7043;51.630;7.254;2022-07-29T10:39:35;6.17;;;3.70;;
13941;SDS011;7043;51.630;7.254;2022-07-29T10:44:29;4.37;;;3.50;;
13941;SDS011;7043;51.630;7.254;2022-07-29T10:46:55;6.93;;;3.50;;
13941;SDS011;7043;51.630;7.254;2022-07-29T10:49:22;6.17;;;3.40;;
13941;SDS011;7043;51.630;7.254;2022-07-29T10:54:56;6.73;;;3.70;;
13941;SDS011;7043;51.630;7.254;2022-07-29T10:57:21;6.93;;;4.00;;
13941;SDS011;7043;51.630;7.254;2022-07-29T11:05:21;4.70;;;3.77;;
13941;SDS011;7043;51.630;7.254;2022-07-29T11:10:33;6.33;;;4.00;;
13941;SDS011;7043;51.630;7.254;2022-07-29T11:12:59;5.97;;;3.70;;
13941;SDS011;7043;51.630;7.254;2022-07-29T11:15:25;6.50;;;3.80;;
13941;SDS011;7043;51.630;7.254;2022-07-29T11:23:18;6.60;;;5.90;;
13941;SDS011;7043;51.630;7.254;2022-07-29T11:25:45;4.70;;;3.80;;
13941;SDS011;7043;51.630;7.254;2022-07-29T11:28:16;5.73;;;4.00;;
13941;SDS011;7043;51.630;7.254;2022-07-29T11:30:51;6.33;;;4.47;;
13941;SDS011;7043;51.630;7.254;2022-07-29T11:36:13;6.43;;;4.50;;
13941;SDS011;7043;51.630;7.254;2022-07-29T11:38:40;7.17;;;4.80;;
13941;SDS011;7043;51.630;7.254;2022-07-29T11:41:24;7.63;;;5.00;;
13941;SDS011;7043;51.630;7.254;2022-07-29T11:49:02;6.13;;;4.77;;
13941;SDS011;7043;51.630;7.254;2022-07-29T11:51:29;7.03;;;4.93;;
13941;SDS011;7043;51.630;7.254;2022-07-29T11:53:56;8.87;;;4.70;;
13941;SDS011;7043;51.630;7.254;2022-07-29T11:56:23;6.63;;;4.40;;
13941;SDS011;7043;51.630;7.254;2022-07-29T11:58:50;7.07;;;4.80;;
13941;SDS011;7043;51.630;7.254;2022-07-29T12:01:16;6.83;;;4.90;;
13941;SDS011;7043;51.630;7.254;2022-07-29T12:03:43;6.77;;;4.37;;
13941;SDS011;7043;51.630;7.254;2022-07-29T12:06:12;6.30;;;4.40;;
13941;SDS011;7043;51.630;7.254;2022-07-29T12:08:41;6.47;;;4.60;;
13941;SDS011;7043;51.630;7.254;2022-07-29T12:11:14;5.10;;;3.97;;
13941;SDS011;7043;51.630;7.254;2022-07-29T12:13:41;5.83;;;3.97;;
13941;SDS011;7043;51.630;7.254;2022-07-29T12:16:07;6.73;;;4.47;;
13941;SDS011;7043;51.630;7.254;2022-07-29T12:18:33;6.93;;;3.80;;
13941;SDS011;7043;51.630;7.254;2022-07-29T12:21:00;5.40;;;3.97;;
13941;SDS011;7043;51.630;7.254;2022-07-29T12:23:29;6.55;;;3.75;;
13941;SDS011;7043;51.630;7.254;2022-07-29T12:25:55;4.93;;;3.80;;
13941;SDS011;7043;51.630;7.254;2022-07-29T12:28:23;5.47;;;4.40;;
13941;SDS011;7043;51.630;7.254;2022-07-29T12:30:49;6.73;;;4.00;;
13941;SDS011;7043;51.630;7.254;2022-07-29T12:33:23;5.35;;;3.72;;
13941;SDS011;7043;51.630;7.254;2022-07-29T12:35:51;5.43;;;3.70;;
13941;SDS011;7043;51.630;7.254;2022-07-29T12:38:18;7.63;;;4.00;;
13941;SDS011;7043;51.630;7.254;2022-07-29T12:40:45;6.53;;;3.65;;
13941;SDS011;7043;51.630;7.254;2022-07-29T12:43:15;7.43;;;3.88;;
13941;SDS011;7043;51.630;7.254;2022-07-29T12:45:45;5.03;;;3.40;;
13941;SDS011;7043;51.630;7.254;2022-07-29T12:48:11;7.82;;;3.97;;
13941;SDS011;7043;51.630;7.254;2022-07-29T12:50:54;6.55;;;3.72;;
13941;SDS011;7043;51.630;7.254;2022-07-29T12:53:20;5.80;;;3.40;;
13941;SDS011;7043;51.630;7.254;2022-07-29T12:55:47;4.93;;;3.58;;
13941;SDS011;7043;51.630;7.254;2022-07-29T12:58:25;4.72;;;3.42;;
13941;SDS011;7043;51.630;7.254;2022-07-29T13:06:27;6.10;;;3.33;;
13941;SDS011;7043;51.630;7.254;2022-07-29T13:08:58;6.10;;;3.30;;
13941;SDS011;7043;51.630;7.254;2022-07-29T13:11:28;4.93;;;3.75;;
13941;SDS011;7043;51.630;7.254;2022-07-29T13:13:54;6.10;;;3.15;;
13941;SDS011;7043;51.630;7.254;2022-07-29T13:16:20;4.32;;;3.05;;
13941;SDS011;7043;51.630;7.254;2022-07-29T13:18:46;4.00;;;3.20;;
13941;SDS011;7043;51.630;7.254;2022-07-29T13:21:13;5.82;;;3.60;;
13941;SDS011;7043;51.630;7.254;2022-07-29T13:23:40;7.47;;;3.70;;
13941;SDS011;7043;51.630;7.254;2022-07-29T13:26:06;9.18;;;3.50;;
13941;SDS011;7043;51.630;7.254;2022-07-29T13:28:33;6.68;;;3.22;;
13941;SDS011;7043;51.630;7.254;2022-07-29T13:30:59;6.53;;;3.10;;
13941;SDS011;7043;51.630;7.254;2022-07-29T13:33:25;6.65;;;3.00;;
13941;SDS011;7043;51.630;7.254;2022-07-29T13:35:51;5.35;;;2.92;;
13941;SDS011;7043;51.630;7.254;2022-07-29T13:38:17;3.03;;;2.47;;
13941;SDS011;7043;51.630;7.254;2022-07-29T13:40:43;6.28;;;2.78;;
13941;SDS011;7043;51.630;7.254;2022-07-29T13:43:09;4.68;;;2.63;;
13941;SDS011;7043;51.630;7.254;2022-07-29T13:45:35;5.35;;;2.70;;
13941;SDS011;7043;51.630;7.254;2022-07-29T13:48:11;6.05;;;3.17;;
13941;SDS011;7043;51.630;7.254;2022-07-29T13:50:37;4.05;;;2.90;;
13941;SDS011;7043;51.630;7.254;2022-07-29T13:53:03;5.95;;;2.75;;
13941;SDS011;7043;51.630;7.254;2022-07-29T13:55:29;6.43;;;3.45;;
13941;SDS011;7043;51.630;7.254;2022-07-29T13:57:55;5.90;;;2.97;;
13941;SDS011;7043;51.630;7.254;2022-07-29T14:00:21;4.18;;;3.15;;
13941;SDS011;7043;51.630;7.254;2022-07-29T14:02:48;6.18;;;3.33;;
13941;SDS011;7043;51.630;7.254;2022-07-29T14:05:14;6.22;;;3.13;;
13941;SDS011;7043;51.630;7.254;2022-07-29T14:07:40;6.15;;;3.00;;
13941;SDS011;7043;51.630;7.254;2022-07-29T14:10:06;5.97;;;3.10;;
13941;SDS011;7043;51.630;7.254;2022-07-29T14:12:33;4.90;;;2.70;;
13941;SDS011;7043;51.630;7.254;2022-07-29T14:14:59;4.00;;;2.65;;
13941;SDS011;7043;51.630;7.254;2022-07-29T14:17:25;4.90;;;3.03;;
13941;SDS011;7043;51.630;7.254;2022-07-29T14:19:51;5.90;;;2.90;;
13941;SDS011;7043;51.630;7.254;2022-07-29T14:22:17;6.10;;;2.80;;
13941;SDS011;7043;51.630;7.254;2022-07-29T14:24:44;3.20;;;2.47;;
13941;SDS011;7043;51.630;7.254;2022-07-29T14:27:10;6.22;;;3.10;;
13941;SDS011;7043;51.630;7.254;2022-07-29T14:29:36;5.38;;;2.47;;
13941;SDS011;7043;51.630;7.254;2022-07-29T14:32:03;4.95;;;2.60;;
13941;SDS011;7043;51.630;7.254;2022-07-29T14:34:29;7.20;;;2.80;;
13941;SDS011;7043;51.630;7.254;2022-07-29T14:36:55;5.45;;;2.50;;
13941;SDS011;7043;51.630;7.254;2022-07-29T14:39:21;4.38;;;2.90;;
13941;SDS011;7043;51.630;7.254;2022-07-29T14:41:50;3.90;;;2.60;;
13941;SDS011;7043;51.630;7.254;2022-07-29T14:44:17;5.72;;;2.38;;
13941;SDS011;7043;51.630;7.254;2022-07-29T14:46:43;4.53;;;2.63;;
13941;SDS011;7043;51.630;7.254;2022-07-29T14:49:09;4.60;;;2.15;;
13941;SDS011;7043;51.630;7.254;2022-07-29T14:51:35;6.07;;;2.65;;
13941;SDS011;7043;51.630;7.254;2022-07-29T14:54:01;4.05;;;2.20;;
13941;SDS011;7043;51.630;7.254;2022-07-29T14:56:27;5.38;;;2.72;;
13941;SDS011;7043;51.630;7.254;2022-07-29T14:58:55;4.75;;;2.75;;
13941;SDS011;7043;51.630;7.254;2022-07-29T15:01:21;5.18;;;2.40;;
13941;SDS011;7043;51.630;7.254;2022-07-29T15:03:47;4.75;;;2.60;;
13941;SDS011;7043;51.630;7.254;2022-07-29T15:06:13;5.78;;;2.70;;
13941;SDS011;7043;51.630;7.254;2022-07-29T15:08:39;3.95;;;2.05;;
13941;SDS011;7043;51.630;7.254;2022-07-29T15:11:05;5.70;;;2.88;;
13941;SDS011;7043;51.630;7.254;2022-07-29T15:13:31;5.13;;;3.42;;
13941;SDS011;7043;51.630;7.254;2022-07-29T15:15:57;7.22;;;2.45;;
13941;SDS011;7043;51.630;7.254;2022-07-29T15:18:23;6.82;;;2.65;;
13941;SDS011;7043;51.630;7.254;2022-07-29T15:20:49;5.47;;;2.65;;
13941;SDS011;7043;51.630;7.254;2022-07-29T15:23:14;8.05;;;2.78;;
13941;SDS011;7043;51.630;7.254;2022-07-29T15:25:40;6.25;;;2.88;;
13941;SDS011;7043;51.630;7.254;2022-07-29T15:28:06;3.13;;;2.53;;
13941;SDS011;7043;51.630;7.254;2022-07-29T15:30:33;6.35;;;2.70;;
13941;SDS011;7043;51.630;7.254;2022-07-29T15:33:01;5.10;;;2.55;;
13941;SDS011;7043;51.630;7.254;2022-07-29T15:35:28;5.45;;;3.28;;
13941;SDS011;7043;51.630;7.254;2022-07-29T15:37:55;4.25;;;2.55;;
13941;SDS011;7043;51.630;7.254;2022-07-29T15:40:21;5.72;;;2.85;;
13941;SDS011;7043;51.630;7.254;2022-07-29T15:42:47;3.58;;;2.47;;
13941;SDS011;7043;51.630;7.254;2022-07-29T15:45:13;4.30;;;2.72;;
13941;SDS011;7043;51.630;7.254;2022-07-29T15:47:39;8.30;;;2.92;;
13941;SDS011;7043;51.630;7.254;2022-07-29T15:50:05;7.47;;;2.88;;
13941;SDS011;7043;51.630;7.254;2022-07-29T15:52:36;5.13;;;2.63;;